»·PEaware :: N2MZ CL35-KSAN

N2MZ :: CL35-KSAN

FLIGHT INFORMATION

Flight Status: Arrived
Operator: Privately registered:
United States
More flights under this callsign
Pilot: Mike Z. (25595)
Aircraft: CESSNA 172 SKYHAWK
(C172)
More flights by this aircraft type
Origin: CL35 Warner Springs
United States
Destination: KSAN San Diego Intl-Lindbergh
United States
More flights between these airports :: More routes between these airports
Route: +
File this flight plan on PilotEdge
Remarks:
Altitude:
(Current/Filed)
8,800ft
Speed:
(Current/Filed)
110kts
Departed: 09-Nov-19 03:48 PM
Arrived: 09-Nov-19 04:26 PM
Distance/Time
Traveled:
42nm/0:37
Distance/Time
To Go:
Arrived

Flight Plot

Page will automatically refresh every two minutes.

Flight plan parsing failed; only flown route is shown


Map Options




Map Legend


Flown Route
Filed Route
Departure Airport
Arrival Airport
Navaid (VOR, NDB)
Fix

Horizontal Profiles

Position Reports

Time Latitude Longitude Heading Altitude Ground
Speed
09-Nov-19 15:35 33.284221 -116.663306 358 2886ft 0kts
09-Nov-19 15:37 33.284221 -116.663306 358 2886ft 0kts
09-Nov-19 15:37 33.284221 -116.663306 358 2886ft 0kts
09-Nov-19 15:38 33.284221 -116.663306 358 2886ft 0kts
09-Nov-19 15:39 33.284221 -116.663306 358 2886ft 0kts
09-Nov-19 15:40 33.284221 -116.663306 358 2886ft 0kts
09-Nov-19 15:41 33.284221 -116.663306 358 2886ft 0kts
09-Nov-19 15:42 33.284221 -116.663306 358 2886ft 0kts
09-Nov-19 15:43 33.284221 -116.663306 358 2886ft 0kts
09-Nov-19 15:44 33.284221 -116.663306 358 2886ft 0kts
09-Nov-19 15:45 33.284328 -116.663812 260 2886ft 7kts
09-Nov-19 15:46 33.284689 -116.664218 255 2886ft 7kts
09-Nov-19 15:47 33.284927 -116.685032 270 3357ft 79kts
09-Nov-19 15:48 33.275207 -116.702250 182 4157ft 79kts
09-Nov-19 15:49 33.267217 -116.681666 115 4879ft 83kts
09-Nov-19 15:50 33.248445 -116.664518 145 5627ft 81kts
09-Nov-19 15:51 33.229007 -116.649215 146 6287ft 88kts
09-Nov-19 15:52 33.207966 -116.632669 146 6977ft 87kts
09-Nov-19 15:53 33.188671 -116.617362 145 7653ft 84kts
09-Nov-19 15:54 33.168708 -116.601461 145 8258ft 87kts
09-Nov-19 15:55 33.148488 -116.585289 145 8858ft 87kts
09-Nov-19 15:56 33.125931 -116.588557 183 9436ft 85kts
09-Nov-19 15:57 33.097927 -116.591081 184 9510ft 114kts
09-Nov-19 15:58 33.065001 -116.594217 184 9507ft 119kts
09-Nov-19 15:59 33.032345 -116.597352 184 9661ft 108kts
09-Nov-19 16:00 33.005960 -116.599835 184 10127ft 85kts
09-Nov-19 16:01 32.978452 -116.603404 187 9778ft 130kts
09-Nov-19 16:02 32.942248 -116.609303 187 9018ft 118kts
09-Nov-19 16:03 32.910359 -116.614179 186 9018ft 114kts
09-Nov-19 16:04 32.878430 -116.618661 195 8922ft 123kts
09-Nov-19 16:05 32.845036 -116.638047 218 7933ft 140kts
09-Nov-19 16:06 32.815097 -116.666644 218 6927ft 134kts
09-Nov-19 16:07 32.786644 -116.693735 218 5921ft 129kts
09-Nov-19 16:08 32.758689 -116.720261 218 4936ft 130kts
09-Nov-19 16:09 32.733775 -116.745045 220 4992ft 115kts
09-Nov-19 16:10 32.709273 -116.769808 220 4991ft 115kts
09-Nov-19 16:11 32.694133 -116.801567 258 4992ft 115kts
09-Nov-19 16:12 32.687922 -116.839005 258 4979ft 115kts
09-Nov-19 16:13 32.682155 -116.876565 262 4918ft 120kts
09-Nov-19 16:14 32.678020 -116.915338 262 4401ft 101kts
09-Nov-19 16:15 32.675521 -116.946114 285 3963ft 84kts
09-Nov-19 16:16 32.682946 -116.976217 285 3604ft 100kts
09-Nov-19 16:17 32.689631 -117.006061 284 3044ft 91kts
09-Nov-19 16:18 32.696543 -117.033288 290 2596ft 76kts
09-Nov-19 16:19 32.702040 -117.057648 275 2378ft 80kts
09-Nov-19 16:20 32.707623 -117.083216 287 1833ft 83kts
09-Nov-19 16:21 32.714036 -117.108624 282 1190ft 78kts
09-Nov-19 16:22 32.719567 -117.132404 285 1033ft 72kts
09-Nov-19 16:23 32.725211 -117.155250 283 583ft 70kts
09-Nov-19 16:24 32.730520 -117.177037 286 126ft 68kts
09-Nov-19 16:25 32.734456 -117.190875 17 17ft 10kts
09-Nov-19 16:26 32.734350 -117.188211 107 17ft 27kts
09-Nov-19 16:27 32.732214 -117.179459 103 19ft 29kts
09-Nov-19 16:28 32.732830 -117.179294 351 20ft 0kts
09-Nov-19 16:29 32.732830 -117.179294 351 20ft 0kts

Navigation Log

Ident Type
Flight plan parsing failed, navigation log unavailable